Flight Track Log - Related Links

Times and Time Zones

All times are in EDT time to prevent confusion due to time zone crossing. See the SKW6373 flight status page for this flight to view local times or setup timezone preferences in your user account.

Time Position Orientation Groundspeed Altitude Reporting Facility
EDT Latitude Longitude Course Direction KTS MPH feet Rate Location/Type
Sat 09:23:08 PM 39.8500 -104.7667 270° West 208 239 6,600  Level Denver TRACON
Sat 09:24:02 PM 39.8833 -104.8333 303° West 260 299 7,900 1,895 Climbing Denver TRACON
Sat 09:25:02 PM 39.9167 -104.9167 298° West 285 328 10,200 2,105 Climbing Denver TRACON
Sat 09:25:56 PM 39.9500 -105.0167 294° West 303 349 11,900 1,760 Climbing Denver TRACON
Sat 09:26:00 PM 39.8500 -105.2946 270° West  Level FlightAware Approximate
Sat 09:26:17 PM 39.9400 -105.0419 243° Southwest 303 349 12,400  Level Denver Center
Sat 09:27:00 PM 39.8501 -105.4516 270° West  Level FlightAware Approximate
Sat 09:27:18 PM 39.9247 -105.1694 261° West 334 384 13,700  Level Denver Center
Sat 09:28:00 PM 39.8500 -105.6086 270° West  Level FlightAware Approximate
Sat 09:28:20 PM 39.9097 -105.2956 261° West 353 406 15,400  Level Denver Center
Sat 09:29:21 PM 39.8950 -105.4239 262° West 358 412 17,000 1,415 Climbing Denver Center
Sat 09:30:23 PM 39.8808 -105.5642 263° West 364 419 18,300 1,220 Climbing Denver Center
Sat 09:31:24 PM 39.8669 -105.6989 262° West 378 435 19,500 1,073 Climbing Denver Center
Sat 09:32:26 PM 39.8533 -105.8353 263° West 383 441 20,500 878 Climbing Denver Center
Sat 09:33:27 PM 39.8397 -105.9742 263° West 385 443 21,300 732 Climbing Denver Center
Sat 09:34:29 PM 39.8244 -106.1186 262° West 399 459 22,000 732 Climbing Denver Center
Sat 09:35:30 PM 39.8094 -106.2667 263° West 407 468 22,800 878 Climbing Denver Center
Sat 09:36:32 PM 39.7942 -106.4142 262° West 409 471 23,800 976 Climbing Denver Center
Sat 09:37:33 PM 39.7792 -106.5619 263° West 408 470 24,800 836 Climbing Denver Center
Sat 09:38:34 PM 39.7642 -106.7069 262° West 408 470 25,500 683 Climbing Denver Center
Sat 09:39:36 PM 39.7475 -106.8539 262° West 414 476 26,200 634 Climbing Denver Center
Sat 09:40:37 PM 39.7283 -107.0314 262° West 420 483 26,800 537 Climbing Denver Center
Sat 09:41:39 PM 39.7114 -107.1803 262° West 421 484 27,300 537 Climbing Denver Center
Sat 09:42:40 PM 39.6936 -107.3353 262° West 423 487 27,900 639 Climbing Denver Center
Sat 09:43:41 PM 39.6769 -107.4806 262° West 425 489 28,600 667 Climbing Denver Center
Sat 09:44:55 PM 39.6569 -107.6464 261° West 419 482 29,400 622 Climbing Denver Center
Sat 09:45:56 PM 39.6375 -107.8119 261° West 417 480 30,000 585 Climbing Denver Center
Sat 09:46:58 PM 39.6169 -107.9803 261° West 422 486 30,600 488 Climbing Denver Center
Sat 09:47:59 PM 39.6000 -108.1242 261° West 422 486 31,000 443 Climbing Denver Center
Sat 09:49:00 PM 39.5831 -108.2683 261° West 421 484 31,500 488 Climbing Denver Center
Sat 09:50:02 PM 39.5619 -108.4356 261° West 412 474 32,000 244 Climbing Denver Center
Sat 09:51:03 PM 39.5439 -108.5814 261° West 422 486 32,000  Level Denver Center
Sat 09:52:04 PM 39.5247 -108.7328 261° West 436 502 32,000  Level Denver Center
Sat 09:53:05 PM 39.5014 -108.9108 260° West 442 509 32,000  Level Denver Center
Sat 09:54:07 PM 39.4825 -109.0600 261° West 434 499 32,000  Level Denver Center
Sat 09:55:08 PM 39.4631 -109.2069 260° West 432 497 32,000  Level Denver Center
Sat 09:56:09 PM 39.4414 -109.3778 261° West 430 495 32,000  Level Denver Center
Sat 09:56:36 PM 39.4317 -109.4511 260° West 430 495 32,000  Level Salt Lake Center
Sat 09:57:38 PM 39.4125 -109.5975 260° West 431 496 32,000  Level Salt Lake Center
Sat 09:58:12 PM 39.3989 -109.6939 260° West 430 495 32,000  Level Denver Center
Sat 09:59:13 PM 39.3792 -109.8406 260° West 430 495 32,000  Level Denver Center
Sat 09:59:40 PM 39.3686 -109.9139 259° West 433 498 32,000  Level Salt Lake Center
Sat 10:00:41 PM 39.3497 -110.0586 260° West 428 493 32,000  Level Salt Lake Center
Sat 10:01:42 PM 39.3297 -110.2047 260° West 432 497 32,000  Level Salt Lake Center
Sat 10:02:43 PM 39.3050 -110.3733 259° West 429 494 32,000  Level Salt Lake Center
Sat 10:03:18 PM 39.2947 -110.4458 260° West 430 495 32,000  Level Denver Center
Sat 10:04:19 PM 39.2711 -110.6158 260° West 432 497 32,000  Level Denver Center
Sat 10:04:45 PM 39.2608 -110.6886 260° West 431 496 32,000  Level Salt Lake Center
Sat 10:05:47 PM 39.2400 -110.8336 260° West 430 495 32,000  Level Salt Lake Center
Sat 10:06:47 PM 39.2175 -110.9783 259° West 430 495 32,000  Level Salt Lake Center
Sat 10:07:48 PM 39.1919 -111.1481 259° West 432 497 32,000  Level Salt Lake Center
Sat 10:08:50 PM 39.1739 -111.2769 260° West 430 495 32,000  Level Salt Lake Center
Sat 10:09:51 PM 39.1475 -111.4586 259° West 432 497 32,000  Level Salt Lake Center
Sat 10:10:52 PM 39.1236 -111.6078 258° West 429 494 32,000  Level Salt Lake Center
Sat 10:11:53 PM 39.1011 -111.7581 259° West 429 494 32,000  Level Salt Lake Center
Sat 10:12:54 PM 39.0778 -111.9089 259° West 432 497 32,000  Level Salt Lake Center
Sat 10:13:55 PM 39.0542 -112.0600 259° West 433 498 32,000  Level Salt Lake Center
Sat 10:14:56 PM 39.0306 -112.2122 259° West 435 501 32,000  Level Salt Lake Center
Sat 10:15:57 PM 39.0058 -112.3644 258° West 436 502 32,000  Level Salt Lake Center
Sat 10:16:58 PM 38.9803 -112.5164 258° West 437 503 32,000  Level Salt Lake Center
Sat 10:17:59 PM 38.9564 -112.6708 259° West 441 507 32,000  Level Salt Lake Center
Sat 10:19:01 PM 38.9314 -112.8228 258° West 438 504 32,000  Level Salt Lake Center
Sat 10:20:02 PM 38.9017 -113.0047 258° West 437 503 32,000  Level Salt Lake Center
Sat 10:21:03 PM 38.8758 -113.1547 258° West 434 499 32,000  Level Salt Lake Center
Sat 10:22:04 PM 38.8503 -113.3069 258° West 437 503 32,000  Level Salt Lake Center
Sat 10:23:05 PM 38.8247 -113.4600 258° West 440 506 32,000  Level Salt Lake Center
Sat 10:24:06 PM 38.7986 -113.6131 258° West 441 507 32,000  Level Salt Lake Center
Sat 10:25:07 PM 38.7722 -113.7661 258° West 442 509 32,000  Level Salt Lake Center
Sat 10:26:09 PM 38.7453 -113.9200 257° West 444 511 32,000  Level Salt Lake Center
Sat 10:27:10 PM 38.7192 -114.0711 258° West 439 505 32,000  Level Salt Lake Center
Sat 10:28:11 PM 38.6917 -114.2244 257° West 442 509 32,000  Level Salt Lake Center
Sat 10:29:12 PM 38.6597 -114.4069 257° West 440 506 32,000  Level Salt Lake Center
Sat 10:30:13 PM 38.6311 -114.5611 257° West 446 513 32,000  Level Salt Lake Center
Sat 10:31:14 PM 38.6033 -114.7150 257° West 448 516 32,000  Level Salt Lake Center
Sat 10:32:16 PM 38.5756 -114.8669 257° West 442 509 32,000  Level Salt Lake Center
Sat 10:33:17 PM 38.5472 -115.0186 257° West 441 507 32,000  Level Salt Lake Center
Sat 10:34:18 PM 38.5186 -115.1731 257° West 448 516 32,000  Level Salt Lake Center
Sat 10:35:19 PM 38.4900 -115.3244 256° West 442 509 32,000  Level Salt Lake Center
Sat 10:36:20 PM 38.4594 -115.4939 257° West 444 511 32,000  Level Salt Lake Center
Sat 10:37:21 PM 38.4294 -115.6458 256° West 441 507 32,000  Level Salt Lake Center
Sat 10:38:22 PM 38.4003 -115.7986 256° West 443 510 32,000  Level Salt Lake Center
Sat 10:39:24 PM 38.3714 -115.9506 256° West 441 507 32,000  Level Salt Lake Center
Sat 10:40:25 PM 38.3422 -116.1022 256° West 440 506 32,000  Level Salt Lake Center
Sat 10:41:26 PM 38.3119 -116.2542 256° West 442 509 32,000  Level Salt Lake Center
Sat 10:42:24 PM 38.2811 -116.4067 256° West 444 511 32,000  Level Oakland Center
Sat 10:43:25 PM 38.2511 -116.5611 256° West 448 516 32,000  Level Oakland Center
Sat 10:44:26 PM 38.2197 -116.7136 255° West 447 514 32,000  Level Oakland Center
Sat 10:45:27 PM 38.1892 -116.8669 256° West 448 516 32,000  Level Oakland Center
Sat 10:46:32 PM 38.1522 -117.0514 256° West 448 516 32,000  Level Salt Lake Center
Sat 10:47:33 PM 38.1250 -117.1869 256° West 446 513 32,000  Level Salt Lake Center
Sat 10:48:34 PM 38.0792 -117.3336 248° West 448 516 32,000  Level Salt Lake Center
Sat 10:49:35 PM 38.0258 -117.4767 245° Southwest 447 514 32,000  Level Salt Lake Center
Sat 10:50:31 PM 37.9725 -117.6186 245° Southwest 445 512 32,000  Level Oakland Center
Sat 10:51:32 PM 37.9189 -117.7594 244° Southwest 446 513 32,000 -149 Level Oakland Center
Sat 10:52:32 PM 37.8647 -117.9019 244° Southwest 448 516 31,700 -645 Descending Oakland Center
Sat 10:53:33 PM 37.8097 -118.0472 244° Southwest 456 525 30,700 -984 Descending Oakland Center
Sat 10:54:34 PM 37.7522 -118.1972 244° Southwest 469 540 29,700 -984 Descending Oakland Center
Sat 10:55:35 PM 37.6939 -118.3478 244° Southwest 474 545 28,700 -984 Descending Oakland Center
Sat 10:56:36 PM 37.6372 -118.4944 244° Southwest 469 540 27,700 -984 Descending Oakland Center
Sat 10:57:37 PM 37.5814 -118.6381 244° Southwest 457 526 26,700 -1,091 Descending Oakland Center
Sat 10:58:37 PM 37.5128 -118.8106 243° Southwest 467 537 25,500 -1,091 Descending Oakland Center
Sat 10:59:38 PM 37.4589 -118.9492 244° Southwest 473 544 24,500 -738 Descending Oakland Center
Sat 11:00:39 PM 37.4006 -119.0947 243° Southwest 469 540 24,000 -246 Descending Oakland Center
Sat 11:01:40 PM 37.3478 -119.2414 246° West 463 533 24,000  Level Oakland Center
Sat 11:02:41 PM 37.2917 -119.3800 243° Southwest 447 514 24,000  Level Oakland Center
Sat 11:03:41 PM 37.2347 -119.5175 243° Southwest 446 513 24,000  Level Oakland Center
Sat 11:04:42 PM 37.1778 -119.6567 243° Southwest 447 514 24,000  Level Oakland Center
Sat 11:05:43 PM 37.1208 -119.7956 243° Southwest 452 520 24,000  Level Oakland Center
Sat 11:06:44 PM 37.0642 -119.9361 243° Southwest 452 520 24,000  Level Oakland Center
Sat 11:07:45 PM 36.9950 -120.1053 243° Southwest 457 526 24,000  Level Oakland Center
Sat 11:08:46 PM 36.9361 -120.2425 242° Southwest 455 524 24,000  Level Oakland Center
Sat 11:09:46 PM 36.8778 -120.3831 243° Southwest 458 527 24,000 -1,091 Level Oakland Center
Sat 11:10:47 PM 36.8200 -120.5242 243° Southwest 454 522 21,800 -2,557 Descending Oakland Center
Sat 11:11:48 PM 36.7672 -120.6528 243° Southwest 435 501 18,800 -2,803 Descending Oakland Center
Sat 11:12:49 PM 36.7275 -120.7847 249° West 426 490 16,100 -2,705 Descending Oakland Center
Sat 11:13:50 PM 36.7194 -120.9156 266° West 383 441 13,300 -2,678 Descending Oakland Center
Sat 11:14:50 PM 36.7097 -121.0489 265° West 386 444 10,700 -1,636 Descending Oakland Center
Sat 11:15:51 PM 36.6994 -121.1739 264° West 373 429 10,000 -393 Descending Oakland Center
Sat 11:16:52 PM 36.6906 -121.2853 264° West 340 391 9,900 -541 Descending Oakland Center
Sat 11:17:53 PM 36.6822 -121.3844 264° West 303 349 8,900 -1,240 Descending Oakland Center
Sat 11:18:53 PM 36.6733 -121.4783 263° West 286 329 7,400 -942 Descending Oakland Center
Sat 11:19:54 PM 36.6656 -121.5642 264° West 265 305 7,000 -197 Descending Oakland Center
Sat 11:20:55 PM 36.6625 -121.6614 268° West 245 282 7,000 -64 Level Oakland Center
Sat 11:21:28 PM 36.6667 -121.7000 278° West 231 266 6,900 -710 Descending Northern Cal TRACON
Sat 11:22:28 PM 36.6833 -121.7833 284° West 299 344 5,900 -1,300 Descending Northern Cal TRACON
Sat 11:23:28 PM 36.7000 -121.8500 287° West 197 227 4,300 -1,450 Descending Northern Cal TRACON
Sat 11:24:28 PM 36.7000 -121.9167 270° West 189 217 3,000 -650 Descending Northern Cal TRACON
Sat 11:25:28 PM 36.7167 -121.9833 287° West 185 213 3,000  Level Northern Cal TRACON

Login

Don't have an account? Register now (free) for customized features, flight alerts, and more!